Hovedside
METAR-TAF:

METAR-TAF

Lufthavner :

Haugesund lufthavn. Karmøy

Haugesund, Norge

breddegrad: 59-21N, lengdegrad: 005-13E, høyde over havet: 2 m

Gjeldene værobservasjon

Denne rapporten ble laget for 19 minutter siden, klokken 06:50 UTC
Vind 16 kt fra Øst-sørøst
Temperatur 14°C
Luftfuktighet 47%
Trykk 1017 hPa
Sikt 10 km eller mer
ingen skyer under 1500 m og ingen bygeskyer

METAR: ENHD 230650Z 11016KT CAVOK 14/03 Q1017

Tid: 09:09 (07:09 UTC)

Varsel

Denne rapporten ble laget for 2 timer og 9 minutter siden, klokken 05:00 UTC
Varsel gyldig fra 23. klokken 06 UTC til 23. klokken 15 UTC
Vind 12 kt fra Øst-sørøst
Sikt 10 km eller mer
ingen skyer under 1500 m og ingen bygeskyer
Blir
fra 23. klokken 08 UTC til 23. klokken 10 UTC
Vind 15 kt fra Sørøst med vindkast opp mot 25 kt

TAF: ENHD 230500Z 2306/2315 12012KT CAVOK BECMG 2308/2310 13015G25KT

Værobservasjoner og værvarsel for over 4000 flyplasser (METAR- og TAF-rapporter).

Tilgjengelige stasjoner er representert av de røde og gule prikkene på kartet.

Hold musepekeren over prikken for å se navnet på stasjonen.

Klikk så for å se værobservasjoner og -varsler.

For å forandre kartet kan du klikke på den grønne knappen med svart kryss for å zoome inn, på den grønne knappen med strek for å zoome ut, eller på de grønne pilene for å se tilstøtende kart.


METAR-TAF: